Time;durP1;ratioP1;P1;durP2;ratioP2;P2;SDS_P1;SDS_P2;PMS_P1;PMS_P2;Temp;Humidity;BMP_temperature;BMP_pressure;BME280_temperature;BME280_humidity;BME280_pressure;Samples;Min_cycle;Max_cycle;Signal;HPM_P1;HPM_P2
2021/06/21 00:01:57;;;;;;;11.45;4.55;;;21.70;73.00;;;20.71;70.45;95194.00;4967952;28;20071;-69
2021/06/21 00:04:22;;;;;;;13.88;4.78;;;21.70;73.10;;;20.70;69.87;95202.28;4967275;28;20090;-68
2021/06/21 00:06:48;;;;;;;15.50;4.88;;;21.70;73.10;;;20.67;70.99;95198.28;4954406;28;20039;-69
2021/06/21 00:09:14;;;;;;;15.07;5.05;;;21.60;73.40;;;20.65;71.25;95204.97;4933752;28;20539;-69
2021/06/21 00:11:40;;;;;;;14.48;4.78;;;21.60;73.70;;;20.60;70.21;95205.81;4934985;28;20039;-69
2021/06/21 00:14:05;;;;;;;14.45;4.70;;;21.50;74.10;;;20.54;70.62;95200.75;4950287;28;20139;-69
2021/06/21 00:16:31;;;;;;;11.65;4.53;;;21.40;74.20;;;20.49;71.18;95207.69;4934591;28;20047;-68
2021/06/21 00:18:57;;;;;;;16.92;5.10;;;21.50;74.00;;;20.47;70.52;95201.84;4969091;28;20113;-69
2021/06/21 00:21:23;;;;;;;13.57;4.28;;;21.50;73.80;;;20.46;71.04;95196.78;4968512;28;20538;-69
2021/06/21 00:23:48;;;;;;;17.75;5.22;;;21.50;73.90;;;20.44;70.44;95204.25;4967786;28;20541;-69
2021/06/21 00:26:14;;;;;;;13.60;5.53;;;21.50;73.80;;;20.39;71.61;95206.91;4970821;28;20031;-69
2021/06/21 00:28:40;;;;;;;14.07;4.82;;;21.40;74.00;;;20.36;70.81;95212.78;4974671;28;20038;-69
2021/06/21 00:31:05;;;;;;;15.93;4.60;;;21.30;74.10;;;20.29;70.40;95226.44;4961830;28;20036;-68
2021/06/21 00:33:31;;;;;;;16.85;4.95;;;21.20;74.60;;;20.23;71.59;95227.53;4964637;28;20039;-69
2021/06/21 00:35:57;;;;;;;20.02;5.10;;;21.10;74.90;;;20.17;71.18;95226.75;4948478;28;20082;-68
2021/06/21 00:38:23;;;;;;;13.82;4.13;;;21.00;75.20;;;20.10;71.39;95231.53;4940247;28;20447;-69
2021/06/21 00:40:49;;;;;;;16.67;4.10;;;20.90;75.50;;;20.05;71.34;95228.88;4955475;28;20055;-69
2021/06/21 00:43:14;;;;;;;11.18;4.18;;;20.90;75.60;;;20.00;72.36;95228.91;4945342;28;20122;-69
2021/06/21 00:45:40;;;;;;;15.50;4.50;;;20.70;75.90;;;19.96;72.22;95230.50;4954742;28;20086;-68
2021/06/21 00:48:06;;;;;;;12.88;4.72;;;20.70;76.20;;;19.93;71.60;95219.56;4985352;28;20118;-68
2021/06/21 00:50:32;;;;;;;12.95;4.28;;;20.70;75.90;;;19.88;72.18;95199.00;4972116;28;20451;-69
2021/06/21 00:52:59;;;;;;;14.63;4.45;;;20.60;76.20;;;19.83;71.70;95193.69;4958458;28;20047;-68
2021/06/21 00:55:26;;;;;;;10.93;4.13;;;20.60;76.20;;;19.79;72.09;95221.97;4934910;28;20494;-68
2021/06/21 00:57:52;;;;;;;9.27;3.95;;;20.60;76.40;;;19.73;71.98;95225.72;4972443;28;20050;-68
2021/06/21 01:00:20;;;;;;;12.23;4.45;;;20.50;76.50;;;19.68;72.43;95233.69;4971715;28;20043;-68
2021/06/21 01:02:46;;;;;;;16.45;4.05;;;20.40;76.70;;;19.64;71.89;95225.44;4960076;28;20043;-68
2021/06/21 01:05:21;;;;;;;13.20;3.85;;;20.50;76.70;;;19.62;74.04;95213.44;4972235;28;20031;-69
2021/06/21 01:07:47;;;;;;;10.95;3.97;;;20.50;76.40;;;19.61;72.13;95201.16;4971176;28;20034;-69
2021/06/21 01:10:13;;;;;;;13.52;4.20;;;20.50;76.20;;;19.56;72.89;95204.63;4986595;28;20207;-69
2021/06/21 01:12:48;;;;;;;8.98;3.75;;;20.40;76.30;;;19.54;72.95;95207.56;4945609;28;20082;-69
2021/06/21 01:15:26;;;;;;;12.90;4.00;;;20.50;76.00;;;19.51;73.17;95205.41;4988560;28;20037;-68
2021/06/21 01:18:04;;;;;;;10.23;3.13;;;20.60;75.70;;;19.50;73.34;95189.69;4945645;28;20570;-68
2021/06/21 01:21:19;;;;;;;10.27;3.50;;;20.60;75.40;;;19.48;73.00;95181.16;4952408;28;20110;-68
2021/06/21 01:24:15;;;;;;;11.07;3.33;;;20.50;75.50;;;19.43;73.88;95171.25;4971782;28;20074;-68
2021/06/21 01:26:48;;;;;;;10.93;3.35;;;20.40;75.50;;;19.40;73.23;95169.13;4968691;28;20046;-68
2021/06/21 01:30:10;;;;;;;7.15;3.33;;;20.40;75.50;;;19.36;73.13;95169.94;4955154;28;20045;-69
2021/06/21 01:32:48;;;;;;;9.57;2.95;;;20.40;75.50;;;19.28;73.52;95155.28;4968176;28;20031;-68
2021/06/21 01:35:38;;;;;;;11.50;2.90;;;20.40;75.40;;;19.24;73.69;95164.88;4962999;28;20567;-68
2021/06/21 01:38:09;;;;;;;9.60;3.20;;;20.40;75.50;;;19.25;72.85;95177.13;4981860;28;20047;-68
2021/06/21 01:40:46;;;;;;;10.20;3.03;;;20.30;75.60;;;19.28;73.72;95190.72;4970003;28;20043;-68
2021/06/21 01:43:16;;;;;;;9.77;3.22;;;20.30;75.60;;;19.28;73.22;95211.28;4958084;28;20431;-69
2021/06/21 01:45:42;;;;;;;9.95;3.40;;;20.40;75.50;;;19.26;73.38;95205.41;4950417;28;20172;-68
2021/06/21 01:48:08;;;;;;;10.52;3.00;;;20.30;75.20;;;19.22;73.13;95215.78;4984422;28;20442;-69
2021/06/21 01:50:34;;;;;;;17.23;3.53;;;20.10;75.40;;;19.20;71.96;95203.78;4933468;28;20749;-68
2021/06/21 01:53:15;;;;;;;9.88;2.80;;;20.10;75.20;;;19.21;73.28;95213.38;4952152;28;20039;-68
2021/06/21 01:55:49;;;;;;;6.93;2.42;;;20.20;75.00;;;19.19;72.63;95204.84;4960380;28;20113;-68
2021/06/21 01:58:15;;;;;;;7.30;2.63;;;20.20;74.80;;;19.17;71.93;95207.78;4936187;28;20031;-70
2021/06/21 02:00:41;;;;;;;11.27;3.17;;;20.20;74.70;;;19.17;71.79;95212.31;4959840;28;20039;-68
2021/06/21 02:03:06;;;;;;;6.25;2.65;;;20.20;74.80;;;19.16;72.40;95210.69;4969149;28;20054;-68
2021/06/21 02:05:34;;;;;;;8.38;2.70;;;20.20;74.50;;;19.15;71.96;95209.09;4947746;28;20035;-67
2021/06/21 02:07:59;;;;;;;6.22;1.75;;;20.10;74.70;;;19.07;72.33;95223.75;4950724;28;20130;-68
2021/06/21 02:10:25;;;;;;;10.75;3.40;;;20.10;75.00;;;19.06;72.75;95232.03;4946725;28;20526;-67
2021/06/21 02:12:51;;;;;;;8.65;2.80;;;20.00;74.90;;;19.05;72.62;95236.56;4947683;28;20577;-68
2021/06/21 02:15:17;;;;;;;9.93;3.05;;;20.00;75.10;;;19.00;72.61;95233.84;4964282;28;20535;-68
2021/06/21 02:17:43;;;;;;;7.00;2.50;;;19.90;75.20;;;19.01;72.16;95229.31;4947417;28;20507;-68
2021/06/21 02:20:09;;;;;;;7.50;2.35;;;20.00;75.10;;;18.98;71.68;95241.31;4933274;28;20119;-68
2021/06/21 02:22:35;;;;;;;10.60;2.45;;;19.90;74.70;;;18.91;72.77;95241.56;4966819;28;20043;-68
2021/06/21 02:25:04;;;;;;;12.38;5.18;;;19.80;74.90;;;18.90;71.99;95245.28;4971251;28;20110;-68
2021/06/21 02:27:30;;;;;;;11.63;4.55;;;19.80;75.20;;;18.91;71.47;95233.56;4954238;28;20031;-69
2021/06/21 02:29:56;;;;;;;12.18;2.90;;;20.00;74.80;;;18.88;72.05;95236.75;4950256;28;20046;-68
2021/06/21 02:32:22;;;;;;;10.52;3.30;;;19.90;74.70;;;18.88;72.69;95235.97;4955177;28;20040;-68
2021/06/21 02:34:47;;;;;;;14.13;6.65;;;19.90;74.70;;;18.87;72.33;95245.81;4954599;28;20531;-68
2021/06/21 02:37:15;;;;;;;15.77;8.90;;;19.90;75.00;;;18.90;72.32;95245.28;4935503;28;20122;-69
2021/06/21 02:39:41;;;;;;;8.32;2.83;;;20.00;74.80;;;18.91;71.52;95249.56;4947000;28;20042;-68
2021/06/21 02:42:07;;;;;;;12.43;2.55;;;19.90;74.40;;;18.89;71.41;95245.56;4970288;28;20085;-67
2021/06/21 02:44:33;;;;;;;7.80;2.60;;;19.90;74.30;;;18.88;71.56;95255.41;4944615;28;20043;-68
2021/06/21 02:47:00;;;;;;;5.57;2.25;;;20.00;74.60;;;18.89;72.79;95249.03;4966576;28;20114;-68
2021/06/21 02:49:25;;;;;;;8.52;2.53;;;20.00;74.50;;;18.89;72.04;95258.88;4936337;28;20122;-68
2021/06/21 02:52:17;;;;;;;14.27;3.95;;;19.90;74.70;;;18.88;72.16;95250.09;4970894;28;20059;-68
2021/06/21 02:54:51;;;;;;;10.68;4.95;;;20.00;74.50;;;18.87;72.00;95255.69;4953254;28;20058;-68
2021/06/21 02:57:29;;;;;;;10.18;3.30;;;20.00;74.60;;;18.87;72.46;95261.81;4971313;28;20051;-68
2021/06/21 02:59:55;;;;;;;11.65;3.20;;;20.00;74.60;;;18.88;71.66;95262.59;4940416;28;20068;-68
2021/06/21 03:02:21;;;;;;;10.93;2.70;;;20.00;74.40;;;18.87;71.90;95264.47;4978297;28;20070;-68
2021/06/21 03:04:47;;;;;;;10.00;2.72;;;20.00;74.30;;;18.89;72.95;95269.53;4961954;28;20423;-68
2021/06/21 03:07:15;;;;;;;6.95;2.38;;;20.10;74.20;;;18.90;72.46;95271.13;4986461;28;20499;-68
2021/06/21 03:09:44;;;;;;;12.15;2.80;;;20.10;74.20;;;18.90;72.32;95276.47;4975431;28;20039;-69
2021/06/21 03:12:10;;;;;;;11.02;2.90;;;20.10;74.40;;;18.90;72.81;95282.59;4957028;28;20035;-69
2021/06/21 03:14:36;;;;;;;8.25;3.70;;;20.10;74.30;;;18.90;72.13;95279.94;4933841;28;20675;-68
2021/06/21 03:17:06;;;;;;;12.40;4.78;;;20.00;74.60;;;18.90;72.67;95290.59;4948648;28;20043;-68
2021/06/21 03:19:31;;;;;;;11.23;4.40;;;20.10;74.60;;;18.88;72.63;95292.72;4937651;28;20063;-68
2021/06/21 03:21:57;;;;;;;8.90;3.50;;;20.10;74.90;;;18.89;72.79;95291.66;4964967;28;20035;-68
2021/06/21 03:24:24;;;;;;;17.63;4.20;;;20.00;74.90;;;18.89;72.58;95307.66;4952005;28;20063;-68
2021/06/21 03:26:50;;;;;;;18.90;5.50;;;20.10;75.10;;;18.91;73.17;95300.19;4956992;28;20081;-68
2021/06/21 03:29:18;;;;;;;9.93;3.45;;;20.10;75.20;;;18.95;73.53;95311.94;4950266;28;20070;-68
2021/06/21 03:31:48;;;;;;;13.15;6.78;;;20.10;75.00;;;18.96;73.09;95313.53;4936726;28;20038;-68
2021/06/21 03:34:15;;;;;;;16.15;7.15;;;20.10;75.00;;;19.00;73.22;95315.66;4952175;28;20035;-69
2021/06/21 03:36:41;;;;;;;13.85;5.78;;;20.20;75.10;;;19.03;73.00;95325.84;4942154;28;20077;-68
2021/06/21 03:39:07;;;;;;;10.50;3.72;;;20.30;75.00;;;19.06;73.18;95327.97;4968221;28;20491;-68
2021/06/21 03:41:33;;;;;;;21.70;9.18;;;20.30;75.20;;;19.07;73.67;95329.56;4953367;28;20027;-68
2021/06/21 03:43:59;;;;;;;16.45;4.57;;;20.30;75.30;;;19.11;72.92;95330.66;4981252;28;20454;-68
2021/06/21 03:46:24;;;;;;;13.38;3.67;;;20.30;75.50;;;19.12;74.06;95327.72;4954103;28;20031;-69
2021/06/21 03:48:50;;;;;;;15.13;3.65;;;20.30;75.80;;;19.16;73.80;95339.47;4951288;28;20038;-72
2021/06/21 03:51:16;;;;;;;10.05;3.47;;;20.40;75.40;;;19.19;73.94;95338.13;4962197;28;20035;-69
2021/06/21 03:53:42;;;;;;;11.68;3.53;;;20.40;75.20;;;19.23;73.78;95344.53;4939254;28;20137;-72
2021/06/21 03:56:08;;;;;;;14.52;4.00;;;20.50;75.30;;;19.28;73.22;95347.25;4955195;28;20044;-74
2021/06/21 03:58:36;;;;;;;9.73;3.50;;;20.60;75.10;;;19.32;73.19;95353.66;4950377;28;20043;-71
2021/06/21 04:01:02;;;;;;;12.23;4.28;;;20.60;74.50;;;19.31;72.89;95359.25;4972259;28;20061;-68
2021/06/21 04:03:27;;;;;;;12.05;3.55;;;20.40;75.20;;;19.31;73.51;95357.38;4972243;28;20035;-69
2021/06/21 04:05:53;;;;;;;16.30;3.92;;;20.50;75.20;;;19.32;72.91;95356.31;4964414;28;20047;-67
2021/06/21 04:08:19;;;;;;;12.32;4.05;;;20.50;75.20;;;19.34;74.25;95348.88;4946411;28;20047;-68
2021/06/21 04:10:45;;;;;;;10.32;3.85;;;20.50;75.10;;;19.36;73.48;95346.72;4947320;28;20083;-68
2021/06/21 04:13:11;;;;;;;9.70;3.53;;;20.60;75.10;;;19.40;73.71;95350.47;4958313;28;20032;-68
2021/06/21 04:15:37;;;;;;;10.20;3.30;;;20.70;74.60;;;19.44;72.95;95350.75;4966291;28;20042;-69
2021/06/21 04:18:09;;;;;;;16.30;3.85;;;20.70;74.40;;;19.49;73.36;95359.59;4937737;28;20133;-69
2021/06/21 04:20:35;;;;;;;16.80;3.92;;;20.80;74.10;;;19.53;73.45;95359.84;4975280;28;20039;-69
2021/06/21 04:23:01;;;;;;;11.00;3.75;;;20.80;74.20;;;19.56;73.21;95359.34;4953057;28;20503;-69
2021/06/21 04:25:27;;;;;;;8.73;3.40;;;20.80;73.80;;;19.58;72.88;95363.38;4960344;28;20031;-69
2021/06/21 04:27:53;;;;;;;11.23;3.60;;;20.80;74.10;;;19.57;73.21;95367.09;4968748;28;20053;-69
2021/06/21 04:30:21;;;;;;;12.98;4.38;;;20.70;74.30;;;19.54;72.97;95375.63;4966320;28;20082;-69
2021/06/21 04:32:47;;;;;;;11.07;3.88;;;20.70;74.80;;;19.54;72.71;95377.50;4972367;28;20046;-69
2021/06/21 04:35:17;;;;;;;15.52;4.07;;;20.60;74.70;;;19.54;72.91;95377.50;4955882;28;20027;-69
2021/06/21 04:37:43;;;;;;;;;;;20.60;74.40;;;19.56;73.99;95380.69;4948115;28;20031;-69
2021/06/21 04:40:12;;;;;;;13.95;3.60;;;20.70;74.00;;;19.53;72.30;95382.03;4963128;28;20355;-68
2021/06/21 04:42:37;;;;;;;12.68;3.85;;;20.60;74.40;;;19.56;73.23;95392.16;4951575;28;20115;-70
2021/06/21 04:45:04;;;;;;;10.07;3.33;;;20.80;74.00;;;19.62;72.93;95381.50;4953422;28;20118;-70
2021/06/21 04:47:30;;;;;;;14.93;3.47;;;21.00;73.70;;;19.69;72.28;95387.38;4972422;28;20122;-71
2021/06/21 04:49:56;;;;;;;10.10;3.75;;;21.10;73.00;;;19.76;72.56;95383.41;4940658;28;20031;-70
2021/06/21 04:52:24;;;;;;;9.95;3.78;;;21.10;72.40;;;19.82;71.90;95381.56;4942712;28;20032;-71
2021/06/21 04:54:50;;;;;;;18.52;3.22;;;21.20;72.10;;;19.83;71.27;95386.63;4962422;28;20475;-71
2021/06/21 04:57:16;;;;;;;13.32;3.35;;;21.10;72.10;;;19.80;71.80;95395.16;4945869;28;20047;-71
2021/06/21 04:59:42;;;;;;;10.40;3.80;;;21.00;72.70;;;19.78;71.58;95404.50;4951607;28;20038;-72
2021/06/21 05:02:08;;;;;;;10.52;3.40;;;21.00;73.20;;;19.79;71.87;95406.09;4965763;28;20047;-73
2021/06/21 05:04:33;;;;;;;13.05;3.70;;;20.90;73.50;;;19.76;72.19;95407.44;4958804;28;20093;-72
2021/06/21 05:06:59;;;;;;;12.30;3.47;;;20.90;73.80;;;19.80;72.47;95397.03;4950795;28;20035;-69
2021/06/21 05:09:25;;;;;;;19.42;4.65;;;21.10;73.60;;;19.81;72.02;95394.09;4929040;28;20099;-73
2021/06/21 05:11:51;;;;;;;14.93;4.68;;;21.10;73.90;;;19.81;73.04;95396.75;4982828;28;20466;-73
2021/06/21 05:14:17;;;;;;;13.32;4.40;;;21.10;73.80;;;19.80;71.82;95392.50;4933308;28;20459;-73
2021/06/21 05:16:42;;;;;;;13.18;3.75;;;21.10;73.90;;;19.83;72.68;95391.97;4976895;28;20035;-72
2021/06/21 05:19:08;;;;;;;10.90;3.88;;;21.00;73.90;;;19.88;72.62;95393.84;4941506;28;20054;-75
2021/06/21 05:21:34;;;;;;;16.52;4.40;;;21.30;73.20;;;19.96;71.96;95389.88;4942821;28;20031;-75
2021/06/21 05:24:00;;;;;;;12.55;3.00;;;21.40;72.90;;;20.00;71.96;95402.41;4957029;28;20039;-73
2021/06/21 05:26:26;;;;;;;11.43;3.45;;;21.20;72.00;;;20.02;72.47;95402.94;4935965;28;20499;-71
2021/06/21 05:28:51;;;;;;;10.77;3.70;;;21.30;72.00;;;20.05;71.28;95402.41;4951510;28;20108;-66
2021/06/21 05:31:17;;;;;;;10.05;3.10;;;21.40;71.30;;;20.09;70.76;95406.16;4969475;28;20526;-67
2021/06/21 05:33:43;;;;;;;11.52;4.70;;;21.40;71.20;;;20.11;71.12;95401.34;4955057;28;20035;-67
2021/06/21 05:36:10;;;;;;;14.13;4.10;;;21.50;71.10;;;20.17;71.35;95394.97;4986890;28;20063;-66
2021/06/21 05:38:37;;;;;;;10.82;3.15;;;21.60;70.40;;;20.24;70.28;95391.22;4970375;28;20035;-66
2021/06/21 05:41:03;;;;;;;9.98;2.78;;;21.70;69.60;;;20.32;70.41;95394.16;4962863;28;20519;-66
2021/06/21 05:43:29;;;;;;;14.80;6.97;;;21.80;69.40;;;20.45;69.66;95387.50;4950107;28;20436;-66
2021/06/21 05:45:54;;;;;;;12.52;3.65;;;22.10;68.10;;;20.60;69.61;95395.53;4950753;28;20063;-67
2021/06/21 05:48:20;;;;;;;12.57;2.97;;;22.40;68.00;;;20.76;69.98;95397.06;4978413;28;20040;-67
2021/06/21 05:50:47;;;;;;;9.65;3.33;;;22.40;67.30;;;20.86;69.62;95390.94;4983263;28;20031;-67
2021/06/21 05:53:12;;;;;;;12.50;3.45;;;22.40;66.90;;;20.99;68.56;95389.53;4974497;28;20062;-68
2021/06/21 05:55:38;;;;;;;12.10;2.78;;;22.60;66.40;;;21.12;68.88;95383.63;4957092;28;20035;-68
2021/06/21 05:58:04;;;;;;;12.55;3.10;;;22.80;65.20;;;21.25;68.24;95383.06;4942988;28;20043;-69
2021/06/21 06:00:30;;;;;;;9.65;3.00;;;22.90;65.10;;;21.42;67.72;95389.97;4934878;28;20411;-69
2021/06/21 06:02:55;;;;;;;10.55;2.75;;;23.00;63.70;;;21.61;67.18;95380.25;4954920;28;20414;-69
2021/06/21 06:05:21;;;;;;;9.10;2.38;;;23.40;63.10;;;21.83;66.75;95391.38;4970604;28;20807;-69
2021/06/21 06:07:47;;;;;;;7.72;2.38;;;23.50;62.70;;;22.01;65.98;95387.25;4960677;28;20046;-70
2021/06/21 06:10:13;;;;;;;6.85;2.25;;;23.60;60.80;;;22.20;64.80;95390.09;4949191;28;20028;-67
2021/06/21 06:12:39;;;;;;;10.00;4.47;;;23.80;59.80;;;22.41;64.35;95375.47;4933872;28;20027;-68
2021/06/21 06:15:06;;;;;;;12.90;2.53;;;24.20;59.30;;;22.64;63.34;95383.84;4937264;28;20045;-68
2021/06/21 06:17:31;;;;;;;10.98;2.33;;;24.40;57.60;;;22.84;62.76;95384.44;4935200;28;20032;-68
2021/06/21 06:19:57;;;;;;;9.05;2.10;;;24.50;56.60;;;23.06;61.12;95375.09;4971299;28;20052;-70
2021/06/21 06:22:23;;;;;;;6.60;2.10;;;24.70;54.00;;;23.21;60.56;95374.94;4928742;28;20043;-68
2021/06/21 06:24:49;;;;;;;9.38;2.10;;;24.70;53.40;;;23.34;58.76;95381.50;4954245;28;20074;-68
2021/06/21 06:27:14;;;;;;;9.60;2.08;;;24.60;52.70;;;23.43;58.19;95393.19;4971266;28;20023;-67
2021/06/21 06:29:40;;;;;;;10.48;2.15;;;24.80;52.70;;;23.49;57.98;95389.38;4969390;28;20030;-67
2021/06/21 06:32:06;;;;;;;8.25;3.17;;;24.90;52.30;;;23.60;58.07;95387.41;4954011;28;20097;-68
2021/06/21 06:34:32;;;;;;;9.82;2.05;;;25.10;52.40;;;23.64;57.42;95383.84;4970039;28;20050;-67
2021/06/21 06:36:58;;;;;;;9.43;1.90;;;25.20;52.30;;;23.75;57.83;95387.97;4931631;28;20038;-67
2021/06/21 06:39:23;;;;;;;6.55;1.75;;;25.60;51.80;;;23.97;57.56;95386.59;4931472;28;20056;-67
2021/06/21 06:41:49;;;;;;;11.63;2.00;;;26.00;50.60;;;24.20;57.51;95388.41;4983449;28;20039;-68
2021/06/21 06:44:15;;;;;;;9.68;2.13;;;26.20;50.90;;;24.40;56.32;95396.19;4944982;28;20451;-69
2021/06/21 06:46:41;;;;;;;7.53;1.75;;;26.30;48.20;;;24.60;55.21;95402.31;4967514;28;23113;-69
2021/06/21 06:49:07;;;;;;;8.98;2.20;;;26.50;48.30;;;24.74;54.46;95395.09;4948634;28;20635;-71
2021/06/21 06:51:41;;;;;;;7.15;1.70;;;26.30;47.20;;;24.72;53.71;95394.59;4948815;28;20035;-68
2021/06/21 06:54:20;;;;;;;10.68;1.92;;;26.00;47.50;;;24.70;53.67;95392.22;4946885;28;20071;-68
2021/06/21 06:57:02;;;;;;;6.55;2.80;;;26.10;47.90;;;24.69;53.03;95384.44;4951067;28;20027;-69
2021/06/21 06:59:36;;;;;;;9.38;2.83;;;26.10;47.60;;;24.85;51.81;95380.38;4971937;28;20133;-68
2021/06/21 07:02:12;;;;;;;7.97;2.28;;;26.80;47.70;;;25.07;51.23;95378.94;4969196;28;20411;-69
2021/06/21 07:04:38;;;;;;;8.25;1.60;;;27.20;46.60;;;25.34;53.04;95368.16;4951849;28;20164;-66
2021/06/21 07:07:05;;;;;;;8.80;1.77;;;27.50;46.20;;;25.64;52.29;95369.44;4966160;28;20045;-67
2021/06/21 07:09:31;;;;;;;8.48;1.70;;;27.70;43.70;;;25.83;51.36;95372.84;4964909;28;20134;-67
2021/06/21 07:11:57;;;;;;;8.68;1.98;;;27.80;44.10;;;25.97;50.84;95374.69;4946596;28;20032;-66
2021/06/21 07:14:23;;;;;;;6.75;1.80;;;27.80;43.50;;;26.13;50.08;95363.25;4961328;28;20037;-66
2021/06/21 07:16:49;;;;;;;4.53;1.30;;;28.00;43.10;;;26.26;49.55;95372.41;4957594;28;20031;-67
2021/06/21 07:19:15;;;;;;;8.38;2.10;;;28.10;42.60;;;26.42;49.09;95370.13;4966683;28;20372;-67
2021/06/21 07:21:41;;;;;;;6.78;1.90;;;28.40;42.70;;;26.59;49.23;95372.97;4964123;28;20034;-65
2021/06/21 07:24:08;;;;;;;8.10;1.65;;;28.70;42.70;;;26.77;48.07;95376.56;4973553;28;20046;-67
2021/06/21 07:26:34;;;;;;;9.05;1.55;;;29.00;41.70;;;26.89;48.38;95373.28;4971422;28;20047;-67
2021/06/21 07:29:00;;;;;;;13.73;6.15;;;29.10;41.40;;;27.01;48.53;95377.03;4970202;28;20027;-67
2021/06/21 07:31:25;;;;;;;8.77;2.22;;;29.30;41.40;;;27.19;47.93;95377.91;4954747;28;20566;-67
2021/06/21 07:33:51;;;;;;;7.47;1.50;;;29.70;41.00;;;27.43;47.27;95372.09;4945994;28;20043;-66
2021/06/21 07:36:17;;;;;;;9.30;1.77;;;29.80;39.10;;;27.62;46.94;95369.97;4963814;28;20047;-68
2021/06/21 07:38:43;;;;;;;5.40;1.77;;;30.20;39.10;;;27.85;46.35;95367.16;4953048;28;20035;-68
2021/06/21 07:41:09;;;;;;;5.47;1.63;;;30.50;37.50;;;28.04;45.70;95368.41;4975454;28;20035;-67
2021/06/21 07:43:34;;;;;;;6.32;1.67;;;30.60;37.50;;;28.15;45.18;95366.19;4952853;28;20051;-66
2021/06/21 07:46:00;;;;;;;8.98;1.20;;;30.30;37.40;;;28.22;44.76;95365.72;4946218;28;20066;-67
2021/06/21 07:48:26;;;;;;;6.10;1.40;;;30.40;37.30;;;28.21;44.04;95374.94;4947714;28;20034;-67
2021/06/21 07:50:52;;;;;;;6.38;1.60;;;30.20;36.20;;;28.10;43.46;95358.25;4963712;28;20504;-68
2021/06/21 07:53:17;;;;;;;5.85;1.92;;;29.80;37.30;;;28.02;43.56;95361.72;4953492;28;20039;-66
2021/06/21 07:55:43;;;;;;;5.97;1.38;;;30.00;36.80;;;28.05;43.15;95361.88;4949377;28;20039;-66
2021/06/21 07:58:09;;;;;;;8.48;4.10;;;30.20;37.20;;;28.12;43.35;95366.03;4946435;28;20044;-66
2021/06/21 08:00:38;;;;;;;6.75;1.35;;;30.40;36.60;;;28.26;43.04;95356.66;4930004;28;20563;-67
2021/06/21 08:03:06;;;;;;;10.67;1.73;;;30.60;36.40;;;28.42;42.68;95356.97;4960080;28;20654;-67
2021/06/21 08:05:32;;;;;;;7.47;1.50;;;30.80;35.90;;;28.55;41.96;95358.72;4968364;28;20765;-67
2021/06/21 08:07:57;;;;;;;6.22;1.40;;;30.80;36.20;;;28.56;41.77;95354.91;4969838;28;20046;-67
2021/06/21 08:10:23;;;;;;;8.73;1.25;;;30.60;36.80;;;28.67;41.94;95356.13;4965470;28;20050;-67
2021/06/21 08:12:49;;;;;;;5.72;1.65;;;31.10;36.60;;;28.83;42.28;95352.91;4980817;28;20585;-67
2021/06/21 08:15:15;;;;;;;10.90;1.80;;;31.30;35.70;;;28.92;42.16;95356.41;4965042;28;20046;-68
2021/06/21 08:17:41;;;;;;;7.50;1.73;;;31.20;35.60;;;29.06;41.92;95351.59;4950434;28;20032;-67
2021/06/21 08:20:09;;;;;;;9.65;1.75;;;31.50;35.30;;;29.23;40.54;95356.94;4947886;28;20031;-68
2021/06/21 08:22:35;;;;;;;9.40;1.70;;;31.70;34.60;;;29.44;41.10;95356.22;4939954;28;20050;-67
2021/06/21 08:25:00;;;;;;;8.02;1.27;;;32.00;34.90;;;29.69;41.05;95358.00;4969512;28;20027;-67
2021/06/21 08:27:26;;;;;;;7.07;1.80;;;32.30;34.10;;;29.79;40.80;95352.19;4964046;28;20522;-68
2021/06/21 08:29:52;;;;;;;6.22;1.60;;;32.00;34.90;;;29.98;39.86;95356.38;4966590;28;20031;-67
2021/06/21 08:32:18;;;;;;;6.22;1.52;;;32.30;33.50;;;30.13;39.81;95353.88;4949778;28;20035;-67
2021/06/21 08:34:44;;;;;;;4.70;1.65;;;32.40;34.10;;;30.27;39.43;95350.09;4966078;28;20051;-67
2021/06/21 08:37:09;;;;;;;7.13;1.52;;;32.30;33.50;;;30.35;39.25;95346.53;4968676;28;20042;-67
2021/06/21 08:39:37;;;;;;;9.23;1.60;;;32.40;35.10;;;30.41;39.29;95350.59;4968413;28;20089;-68
2021/06/21 08:42:05;;;;;;;5.35;1.50;;;32.40;34.50;;;30.53;39.13;95352.56;4954626;28;20165;-67
2021/06/21 08:44:35;;;;;;;5.40;2.08;;;32.70;34.50;;;30.65;37.36;95353.44;4968338;28;20046;-67
2021/06/21 08:47:02;;;;;;;;;;;32.90;33.40;;;30.77;37.53;95355.38;4955724;28;20094;-69
2021/06/21 08:49:28;;;;;;;6.28;1.45;;;33.00;33.30;;;30.87;38.45;95354.16;4966442;28;19914;-67
2021/06/21 08:51:54;;;;;;;7.35;2.10;;;33.00;33.10;;;30.95;38.55;95351.34;4968365;28;20042;-66
2021/06/21 08:54:20;;;;;;;7.30;1.92;;;33.00;32.90;;;30.99;37.91;95356.88;4983676;28;20109;-68
2021/06/21 08:56:45;;;;;;;4.35;1.35;;;33.00;32.90;;;31.04;37.15;95356.69;4972082;28;20394;-65
2021/06/21 08:59:11;;;;;;;7.47;2.00;;;33.20;32.10;;;31.07;37.66;95345.94;4954653;28;20043;-67
2021/06/21 09:01:40;;;;;;;7.25;1.50;;;33.30;32.80;;;31.18;36.94;95340.09;4937536;28;20039;-66
2021/06/21 09:04:11;;;;;;;5.63;1.70;;;33.60;32.70;;;31.27;36.21;95344.28;4964899;28;20035;-67
2021/06/21 09:06:39;;;;;;;5.93;1.35;;;33.80;31.20;;;31.25;36.70;95341.13;4987337;28;20467;-67
2021/06/21 09:09:05;;;;;;;6.70;2.20;;;33.70;31.60;;;31.38;36.55;95344.63;4986708;28;20066;-65
2021/06/21 09:11:47;;;;;;;4.72;1.25;;;33.90;30.70;;;31.50;34.39;95347.34;4971580;28;20376;-65
2021/06/21 09:14:24;;;;;;;6.82;1.40;;;34.00;30.50;;;31.56;34.27;95340.53;4959591;28;20604;-66
2021/06/21 09:16:57;;;;;;;5.72;1.48;;;34.00;29.80;;;31.62;35.78;95343.81;4951913;28;20121;-66
2021/06/21 09:19:23;;;;;;;5.05;1.23;;;34.00;30.20;;;31.76;35.43;95340.78;4970914;28;20074;-66
2021/06/21 09:21:49;;;;;;;6.72;1.63;;;34.40;30.50;;;31.89;35.41;95342.31;4960383;28;20031;-66
2021/06/21 09:24:19;;;;;;;6.45;1.55;;;34.60;29.90;;;31.99;33.96;95339.13;4951711;28;20086;-67
2021/06/21 09:26:46;;;;;;;;;;;34.70;29.60;;;31.96;33.32;95342.56;4963736;28;20095;-68
2021/06/21 09:29:11;;;;;;;4.68;2.13;;;34.40;29.70;;;31.98;35.97;95343.78;4971031;28;19993;-67
2021/06/21 09:31:55;;;;;;;4.18;1.50;;;34.40;30.20;;;32.08;33.52;95333.53;4937789;28;20507;-67
2021/06/21 09:34:23;;;;;;;5.13;1.35;;;34.60;29.60;;;32.13;34.19;95334.09;4959900;28;20035;-68
2021/06/21 09:36:49;;;;;;;3.78;0.85;;;34.60;29.90;;;32.16;34.58;95338.06;4967329;28;20039;-67
2021/06/21 09:39:26;;;;;;;5.25;1.23;;;34.50;29.50;;;32.29;32.73;95334.19;4950382;28;20046;-66
2021/06/21 09:42:20;;;;;;;4.13;1.30;;;34.80;29.40;;;32.41;33.51;95336.88;4970121;28;20081;-66
2021/06/21 09:44:47;;;;;;;4.60;1.20;;;35.00;29.40;;;32.57;34.05;95334.97;4965284;28;20058;-67
2021/06/21 09:47:21;;;;;;;7.53;3.03;;;35.10;29.00;;;32.75;33.29;95330.00;4997236;28;20039;-67
2021/06/21 09:50:11;;;;;;;6.57;1.40;;;35.40;29.00;;;33.01;32.68;95334.16;4969689;28;20078;-68
2021/06/21 09:52:58;;;;;;;5.20;1.02;;;35.70;28.30;;;33.15;31.58;95324.44;4970607;28;20174;-67
2021/06/21 09:55:41;;;;;;;3.10;1.02;;;35.80;27.40;;;33.25;32.16;95325.03;4955048;28;20039;-68
2021/06/21 09:58:19;;;;;;;7.88;1.30;;;36.00;28.20;;;33.38;32.43;95334.72;4947975;28;20027;-67
2021/06/21 10:00:49;;;;;;;4.80;1.10;;;36.30;28.80;;;33.62;31.64;95336.44;4965323;28;20491;-68
2021/06/21 10:03:24;;;;;;;3.40;1.30;;;36.70;26.00;;;33.75;31.41;95338.72;4951464;28;20047;-66
2021/06/21 10:06:05;;;;;;;6.80;1.30;;;36.70;27.40;;;34.07;30.95;95333.19;4969735;28;20035;-70
2021/06/21 10:08:45;;;;;;;6.60;1.08;;;37.30;27.10;;;34.49;31.88;95327.81;4981052;28;20055;-70
2021/06/21 10:11:37;;;;;;;7.78;1.60;;;37.90;27.00;;;34.98;30.67;95327.97;4966060;28;20059;-68
2021/06/21 10:14:08;;;;;;;6.75;1.30;;;38.20;26.30;;;35.39;30.71;95322.03;4957173;28;20046;-69
2021/06/21 10:16:34;;;;;;;6.80;1.20;;;38.50;26.20;;;35.74;30.64;95314.31;4968136;28;21208;-69
2021/06/21 10:19:00;;;;;;;5.97;1.70;;;38.60;25.60;;;35.84;30.13;95313.72;4956283;28;20118;-69
2021/06/21 10:21:26;;;;;;;3.53;1.40;;;38.20;24.30;;;36.12;30.04;95312.50;4950720;28;20490;-71
2021/06/21 10:23:52;;;;;;;6.07;1.35;;;38.70;24.20;;;36.35;29.70;95318.69;4953539;28;20069;-70